Time;durP1;ratioP1;P1;durP2;ratioP2;P2;SDS_P1;SDS_P2;PMS_P1;PMS_P2;Temp;Humidity;BMP_temperature;BMP_pressure;BME280_temperature;BME280_humidity;BME280_pressure;Samples;Min_cycle;Max_cycle;Signal;HPM_P1;HPM_P2
2023/04/18 00:04:13;;;;;;;4.73;2.60;;;12.50;99.90;;;10.98;89.55;99908.69;10363469;28;99223;-85
2023/04/18 00:09:17;;;;;;;5.07;3.27;;;12.50;99.90;;;10.96;90.06;99903.53;10373234;28;96659;-85
2023/04/18 00:14:21;;;;;;;3.57;2.47;;;12.50;99.90;;;10.96;90.35;99903.53;10383115;28;98721;-86
2023/04/18 00:19:25;;;;;;;3.30;2.30;;;12.50;99.90;;;10.95;90.65;99909.84;10416010;27;97432;-85
2023/04/18 00:24:28;;;;;;;4.13;2.60;;;12.40;99.90;;;10.94;90.89;99908.22;10386912;28;96611;-85
2023/04/18 00:29:31;;;;;;;4.17;3.07;;;12.50;99.90;;;10.97;91.09;99920.31;10393560;27;98204;-86
2023/04/18 00:34:34;;;;;;;4.50;2.87;;;12.40;99.90;;;10.99;91.40;99910.34;10380803;28;98531;-85
2023/04/18 00:39:37;;;;;;;3.47;2.30;;;12.50;99.90;;;10.96;91.48;99908.84;10426421;27;98575;-87
2023/04/18 00:44:40;;;;;;;3.57;2.37;;;12.50;99.90;;;10.97;91.16;99907.88;10389400;28;98447;-85
2023/04/18 00:49:44;;;;;;;6.83;3.10;;;12.50;99.90;;;10.97;91.05;99907.88;10380695;27;96961;-86
2023/04/18 00:54:47;;;;;;;3.60;2.40;;;12.50;99.90;;;10.99;90.93;99905.84;10406162;28;96495;-86
2023/04/18 00:59:51;;;;;;;5.53;2.60;;;12.50;99.90;;;11.03;90.54;99908.13;10401911;27;97084;-85
2023/04/18 01:04:54;;;;;;;3.40;2.43;;;12.50;99.90;;;11.04;89.52;99910.66;10379242;27;97661;-87
2023/04/18 01:09:57;;;;;;;4.37;2.87;;;12.50;99.90;;;11.07;88.81;99912.09;10386934;28;96568;-86
2023/04/18 01:15:02;;;;;;;4.43;2.93;;;12.60;99.90;;;11.10;88.54;99912.59;10380206;27;96933;-86
2023/04/18 01:20:06;;;;;;;4.93;3.30;;;12.60;99.90;;;11.08;88.42;99913.75;10370344;27;97933;-85
2023/04/18 01:25:10;;;;;;;3.70;2.93;;;12.60;99.90;;;11.11;87.84;99916.06;10388207;27;96466;-86
2023/04/18 01:30:13;;;;;;;4.77;2.93;;;12.60;99.90;;;11.10;87.59;99911.75;10403393;27;99057;-85
2023/04/18 01:35:16;;;;;;;3.83;3.03;;;12.60;99.90;;;11.15;87.27;99914.69;10387871;27;96627;-86
2023/04/18 01:40:20;;;;;;;4.43;3.07;;;12.60;99.90;;;11.20;86.30;99912.31;10413648;27;96594;-86
2023/04/18 01:45:23;;;;;;;4.77;2.77;;;12.70;99.90;;;11.23;86.66;99910.16;10420857;27;98932;-87
2023/04/18 01:50:26;;;;;;;4.47;2.70;;;12.70;99.90;;;11.24;86.43;99903.81;10420074;28;96571;-88
2023/04/18 01:55:29;;;;;;;4.90;3.10;;;12.70;99.90;;;11.26;86.06;99914.28;10403022;28;98695;-88
2023/04/18 02:00:32;;;;;;;3.90;2.70;;;12.70;99.90;;;11.22;85.88;99900.53;10402041;27;98377;-88
2023/04/18 02:05:36;;;;;;;5.13;3.37;;;12.80;99.90;;;11.26;86.03;99908.94;10401902;27;98098;-88
2023/04/18 02:10:40;;;;;;;5.63;3.30;;;12.70;99.90;;;11.26;85.67;99906.28;10388060;28;98241;-88
2023/04/18 02:15:44;;;;;;;5.57;4.03;;;12.80;99.90;;;11.26;85.66;99900.97;10387692;27;96791;-88
2023/04/18 02:20:47;;;;;;;5.13;3.70;;;12.80;99.90;;;11.28;85.26;99912.28;10384937;27;99062;-85
2023/04/18 02:25:50;;;;;;;5.53;3.90;;;12.80;99.90;;;11.29;85.34;99915.75;10402852;28;96611;-86
2023/04/18 02:30:54;;;;;;;4.60;3.53;;;12.80;99.90;;;11.31;85.56;99909.25;10381476;27;98098;-86
2023/04/18 02:35:57;;;;;;;4.93;3.77;;;12.80;99.90;;;11.33;85.29;99917.03;10384200;28;96683;-86
2023/04/18 02:41:00;;;;;;;4.80;3.13;;;12.80;99.90;;;11.34;85.18;99911.56;10384700;28;96643;-86
2023/04/18 02:46:03;;;;;;;6.20;4.00;;;12.80;99.90;;;11.30;84.55;99904.94;10384750;27;96588;-86
2023/04/18 02:51:08;;;;;;;5.47;3.60;;;12.80;99.90;;;11.32;84.68;99910.06;10385786;28;96570;-86
2023/04/18 02:56:15;;;;;;;6.77;3.83;;;12.80;99.90;;;11.33;84.30;99911.72;10386140;28;97058;-87
2023/04/18 03:01:19;;;;;;;7.07;4.60;;;12.80;99.90;;;11.35;84.38;99915.88;10384080;28;97970;-86
2023/04/18 03:06:22;;;;;;;9.50;4.13;;;12.90;99.90;;;11.35;84.47;99913.22;10363332;28;96421;-86
2023/04/18 03:11:25;;;;;;;6.23;4.33;;;12.90;99.90;;;11.34;83.67;99916.06;10403278;27;96493;-86
2023/04/18 03:16:28;;;;;;;4.90;3.57;;;12.90;99.90;;;11.36;82.68;99922.00;10401340;27;96584;-86
2023/04/18 03:21:31;;;;;;;5.23;4.03;;;12.90;99.90;;;11.38;82.52;99926.13;10401019;27;98549;-87
2023/04/18 03:26:35;;;;;;;6.03;3.90;;;12.90;99.90;;;11.40;82.22;99931.31;10402596;28;98150;-87
2023/04/18 03:31:38;;;;;;;7.00;3.80;;;12.90;99.90;;;11.37;81.89;99927.16;10382866;27;96736;-87
2023/04/18 03:36:41;;;;;;;5.63;3.60;;;12.90;99.90;;;11.40;81.91;99934.78;10383377;27;98248;-87
2023/04/18 03:41:44;;;;;;;7.20;3.77;;;12.90;99.90;;;11.41;81.83;99936.44;10385695;28;97301;-87
2023/04/18 03:46:47;;;;;;;5.20;3.83;;;12.90;99.90;;;11.41;81.35;99941.75;10421419;27;96660;-87
2023/04/18 03:51:50;;;;;;;5.00;3.57;;;12.90;99.90;;;11.41;80.23;99941.75;10391970;28;96737;-87
2023/04/18 03:56:54;;;;;;;5.40;4.00;;;13.00;99.90;;;11.43;80.59;99950.38;10379227;27;96607;-86
2023/04/18 04:01:57;;;;;;;5.83;3.70;;;12.90;99.90;;;11.43;80.56;99944.22;10383741;27;96690;-81
2023/04/18 04:07:00;;;;;;;4.43;3.27;;;13.00;99.90;;;11.45;80.61;99958.16;10377128;27;96617;-82
2023/04/18 04:12:04;;;;;;;5.70;3.70;;;13.00;99.90;;;11.46;80.25;99962.50;10380624;27;98517;-80
2023/04/18 04:17:07;;;;;;;7.40;3.83;;;13.00;99.90;;;11.42;80.73;99959.38;10402346;27;97597;-79
2023/04/18 04:22:10;;;;;;;6.13;3.60;;;13.00;99.90;;;11.41;80.68;99971.03;10394358;27;96657;-80
2023/04/18 04:27:13;;;;;;;4.87;3.40;;;12.90;99.90;;;11.36;80.88;99970.72;10392976;28;96557;-80
2023/04/18 04:32:16;;;;;;;7.87;3.70;;;12.90;99.90;;;11.35;81.61;99974.41;10367874;28;96735;-80
2023/04/18 04:37:19;;;;;;;4.67;3.80;;;12.90;99.90;;;11.33;82.12;99975.56;10395145;27;98059;-80
2023/04/18 04:42:24;;;;;;;5.60;3.67;;;12.90;99.90;;;11.29;81.98;99977.78;10401549;27;96557;-80
2023/04/18 04:47:27;;;;;;;7.13;4.50;;;12.80;99.90;;;11.32;81.97;99989.88;10385369;28;96495;-79
2023/04/18 04:52:31;;;;;;;4.70;3.30;;;12.90;99.90;;;11.33;81.33;99976.38;10401355;28;96798;-80
2023/04/18 04:57:34;;;;;;;5.43;3.30;;;12.90;99.90;;;11.38;82.00;99984.66;10379052;27;96462;-79
2023/04/18 05:02:37;;;;;;;5.77;3.40;;;12.90;99.90;;;11.43;81.36;99992.13;10399600;27;97002;-80
2023/04/18 05:07:41;;;;;;;6.10;3.50;;;12.90;99.90;;;11.53;81.58;99993.53;10409576;27;96648;-80
2023/04/18 05:12:44;;;;;;;4.53;3.30;;;13.00;99.90;;;11.58;82.05;99987.69;10399407;27;96801;-80
2023/04/18 05:17:46;;;;;;;5.53;3.53;;;13.10;99.90;;;11.67;82.23;99994.56;10418702;27;96689;-81
2023/04/18 05:22:50;;;;;;;5.77;3.30;;;13.20;99.90;;;11.75;81.76;99991.00;10397592;27;98037;-79
2023/04/18 05:27:53;;;;;;;4.10;2.43;;;13.20;99.90;;;11.89;81.56;100003.56;10399031;28;98243;-81
2023/04/18 05:32:56;;;;;;;4.07;2.90;;;13.40;99.90;;;12.00;80.97;100000.47;10399713;28;97502;-80
2023/04/18 05:37:59;;;;;;;5.47;2.73;;;13.50;99.90;;;12.08;79.16;100001.38;10397748;27;98665;-79
2023/04/18 05:43:02;;;;;;;3.77;2.60;;;13.60;99.90;;;12.14;78.22;100011.31;10374210;27;96904;-80
2023/04/18 05:48:05;;;;;;;4.47;2.77;;;13.60;99.90;;;12.20;77.14;100008.75;10382843;27;98247;-79
2023/04/18 05:53:08;;;;;;;4.03;2.93;;;13.70;99.90;;;12.23;76.59;100007.53;10393871;27;96691;-81
2023/04/18 05:58:11;;;;;;;4.07;2.37;;;13.70;99.90;;;12.28;75.92;100013.16;10400928;27;97482;-80
2023/04/18 06:03:15;;;;;;;4.30;2.80;;;13.80;99.90;;;12.29;75.64;100007.66;10398482;28;96689;-80
2023/04/18 06:08:18;;;;;;;5.57;2.63;;;13.80;99.90;;;12.25;74.86;100013.53;10385060;28;96630;-80
2023/04/18 06:13:21;;;;;;;4.03;2.53;;;13.80;99.90;;;12.22;73.67;100024.53;10382195;28;96758;-80
2023/04/18 06:18:24;;;;;;;3.23;1.97;;;13.80;99.90;;;12.15;73.96;100020.97;10400462;28;97160;-80
2023/04/18 06:23:27;;;;;;;3.23;2.00;;;13.70;99.90;;;12.12;73.85;100029.31;10383245;28;96510;-80
2023/04/18 06:28:30;;;;;;;3.20;1.90;;;13.60;99.90;;;12.10;73.73;100036.66;10382945;28;96539;-80
2023/04/18 06:33:34;;;;;;;2.70;1.90;;;13.60;99.90;;;12.07;74.08;100032.53;10397757;28;96620;-80
2023/04/18 06:38:37;;;;;;;2.80;1.97;;;13.60;99.90;;;12.07;74.61;100037.03;10382515;28;96576;-81
2023/04/18 06:43:41;;;;;;;3.20;1.83;;;13.60;99.90;;;12.07;74.39;100034.38;10396865;28;96578;-82
2023/04/18 06:49:03;;;;;;;2.57;1.80;;;13.60;99.90;;;12.14;75.39;100036.13;10400331;28;98609;-82
2023/04/18 06:54:06;;;;;;;2.20;1.63;;;13.60;99.90;;;12.24;75.04;100039.34;10399619;28;96657;-80
2023/04/18 06:59:09;;;;;;;4.63;1.90;;;13.70;99.90;;;12.27;74.83;100043.47;10418353;28;97150;-81
2023/04/18 07:04:12;;;;;;;2.57;1.70;;;13.70;99.90;;;12.30;74.92;100046.63;10379565;28;97494;-82
2023/04/18 07:09:16;;;;;;;2.90;1.63;;;13.70;99.90;;;12.30;74.28;100053.78;10379293;28;97568;-81
2023/04/18 07:14:23;;;;;;;1.80;1.27;;;13.80;99.90;;;12.36;75.40;100046.91;10378691;28;96753;-79
2023/04/18 07:19:26;;;;;;;2.97;1.70;;;13.80;99.90;;;12.48;74.92;100054.25;10380546;28;96596;-80
2023/04/18 07:24:30;;;;;;;2.43;1.50;;;13.90;99.90;;;12.54;74.46;100050.84;10395661;28;98458;-80
2023/04/18 07:29:33;;;;;;;2.23;1.40;;;14.00;99.90;;;12.71;73.66;100048.78;10378653;28;97594;-80
2023/04/18 07:34:36;;;;;;;2.05;1.40;;;14.20;99.90;;;12.89;72.53;100053.72;10391682;28;97604;-79
2023/04/18 07:39:40;;;;;;;2.72;1.92;;;14.40;99.90;;;13.05;72.71;100058.88;10412718;28;97861;-81
2023/04/18 07:44:43;;;;;;;2.03;1.27;;;14.50;99.90;;;13.09;71.58;100057.50;10395692;28;98360;-80
2023/04/18 07:49:46;;;;;;;3.23;1.30;;;14.60;99.90;;;13.12;71.10;100066.94;10380216;28;97500;-81
2023/04/18 07:54:50;;;;;;;2.15;1.10;;;14.60;99.90;;;13.15;70.35;100076.44;10397057;28;96579;-80
2023/04/18 07:59:53;;;;;;;1.35;1.00;;;14.60;99.90;;;13.26;71.11;100079.47;10380387;28;96498;-80
2023/04/18 08:04:57;;;;;;;2.25;1.20;;;14.70;99.90;;;13.38;68.88;100079.81;10395075;28;96879;-80
2023/04/18 08:10:00;;;;;;;3.40;1.27;;;14.90;99.90;;;13.44;70.35;100079.06;10378971;28;96710;-80
2023/04/18 08:15:04;;;;;;;3.38;1.50;;;14.90;99.90;;;13.63;69.49;100078.41;10380437;28;96557;-81
2023/04/18 08:20:07;;;;;;;3.50;1.10;;;15.10;99.90;;;13.97;69.34;100079.53;10394245;28;96680;-80
2023/04/18 08:25:11;;;;;;;2.75;1.27;;;15.40;99.90;;;14.22;67.40;100076.47;10362598;28;96475;-80
2023/04/18 08:30:14;;;;;;;2.95;1.75;;;15.60;99.70;;;14.23;63.86;100078.09;10360723;28;96640;-80
2023/04/18 08:35:17;;;;;;;3.05;1.60;;;15.70;97.60;;;14.22;63.93;100089.81;10377499;28;96689;-81
2023/04/18 08:40:20;;;;;;;2.38;1.40;;;15.70;97.00;;;14.22;64.31;100082.63;10411005;28;96528;-81
2023/04/18 08:45:23;;;;;;;3.78;1.70;;;15.80;97.30;;;14.40;65.10;100082.13;10397580;28;96829;-80
2023/04/18 08:50:26;;;;;;;2.33;1.35;;;15.90;97.50;;;14.60;64.48;100093.00;10401744;28;96593;-80
2023/04/18 08:55:29;;;;;;;2.90;1.38;;;16.10;97.40;;;14.84;65.24;100092.50;10401767;28;96533;-80
2023/04/18 09:00:32;;;;;;;2.75;1.55;;;16.30;97.40;;;14.81;62.55;100092.06;10401812;28;96517;-80
2023/04/18 09:05:37;;;;;;;2.13;1.40;;;16.40;96.10;;;14.79;63.80;100091.44;10383970;28;97548;-79
2023/04/18 09:10:41;;;;;;;2.83;1.67;;;16.30;96.10;;;14.90;62.16;100085.53;10401781;28;96845;-80
2023/04/18 09:15:55;;;;;;;2.35;1.55;;;16.40;95.40;;;15.17;62.34;100089.13;10384536;28;96824;-80
2023/04/18 09:21:18;;;;;;;2.58;1.70;;;16.60;95.60;;;15.51;61.36;100083.69;10383368;28;96675;-80
2023/04/18 09:26:35;;;;;;;2.92;1.35;;;16.90;95.20;;;15.97;60.58;100076.78;10416604;28;96426;-80
2023/04/18 09:32:00;;;;;;;1.55;1.02;;;17.30;94.50;;;16.35;58.81;100068.09;10400212;28;96651;-80
2023/04/18 09:37:12;;;;;;;2.47;1.38;;;17.70;93.20;;;16.77;58.01;100072.97;10382017;28;96665;-80
2023/04/18 09:42:17;;;;;;;2.35;1.30;;;18.00;94.30;;;16.92;57.17;100070.03;10400871;28;96596;-81
2023/04/18 09:47:19;;;;;;;3.05;1.30;;;18.30;93.20;;;16.91;55.04;100073.75;10382300;28;96678;-80
2023/04/18 09:52:26;;;;;;;3.42;1.40;;;18.30;91.80;;;16.73;54.68;100077.13;10417441;28;96429;-82
2023/04/18 09:57:33;;;;;;;2.22;1.20;;;18.30;90.70;;;16.64;55.23;100072.16;10399273;28;97386;-81
2023/04/18 10:02:49;;;;;;;1.50;1.00;;;18.10;90.20;;;16.69;54.57;100067.00;10399454;28;96528;-81
2023/04/18 10:07:53;;;;;;;2.58;1.10;;;18.20;89.40;;;16.70;53.19;100065.94;10399008;28;96397;-80
2023/04/18 10:12:59;;;;;;;1.90;1.00;;;18.20;87.50;;;16.81;53.91;100059.97;10382233;28;96605;-81
2023/04/18 10:18:23;;;;;;;2.17;0.90;;;18.30;87.50;;;16.84;51.79;100071.09;10382629;28;97376;-80
2023/04/18 10:23:35;;;;;;;1.42;0.90;;;18.40;85.30;;;16.92;51.86;100063.84;10413767;28;97076;-81
2023/04/18 10:28:51;;;;;;;1.60;0.90;;;18.40;84.60;;;16.95;51.37;100064.25;10382813;28;96617;-81
2023/04/18 10:34:00;;;;;;;2.90;0.90;;;18.40;82.70;;;16.93;49.95;100068.19;10397072;28;96664;-82
2023/04/18 10:39:22;;;;;;;1.90;0.85;;;18.40;81.40;;;17.08;50.08;100057.97;10383541;28;96536;-82
2023/04/18 10:44:26;;;;;;;3.33;0.98;;;18.50;81.40;;;17.25;49.48;100064.50;10381555;28;97160;-82
2023/04/18 10:49:30;;;;;;;1.65;0.73;;;18.70;80.30;;;17.36;49.67;100071.06;10381628;28;96776;-81
2023/04/18 10:54:36;;;;;;;2.10;1.27;;;18.80;80.10;;;17.17;49.10;100067.47;10365121;28;96794;-81
2023/04/18 10:59:49;;;;;;;2.55;1.00;;;18.70;77.70;;;17.09;48.79;100059.63;10380256;28;96653;-81
2023/04/18 11:04:57;;;;;;;1.23;0.85;;;18.60;77.00;;;17.20;48.87;100058.13;10395265;28;96639;-81
2023/04/18 11:10:01;;;;;;;1.77;0.80;;;18.70;77.20;;;17.36;48.76;100057.66;10397532;28;96574;-81
2023/04/18 11:15:24;;;;;;;1.52;0.80;;;18.80;76.90;;;17.64;48.08;100051.91;10395974;28;98520;-81
2023/04/18 11:20:36;;;;;;;1.15;0.73;;;19.00;76.30;;;17.88;47.35;100056.50;10379388;28;97571;-81
2023/04/18 11:25:39;;;;;;;1.20;0.80;;;19.30;75.80;;;17.94;45.93;100056.66;10381593;28;96634;-81
2023/04/18 11:30:42;;;;;;;2.58;0.90;;;19.40;74.40;;;18.04;46.96;100056.97;10378879;28;96771;-80
2023/04/18 11:35:46;;;;;;;2.75;1.00;;;19.50;74.00;;;18.05;47.00;100055.94;10379913;28;96577;-80
2023/04/18 11:40:51;;;;;;;1.88;0.82;;;19.60;73.50;;;17.97;46.96;100061.59;10405563;28;96676;-80
2023/04/18 11:45:57;;;;;;;1.17;0.70;;;19.50;73.20;;;18.04;47.49;100052.41;10395888;28;98296;-80
2023/04/18 11:51:00;;;;;;;2.25;1.33;;;19.50;73.50;;;18.16;46.61;100044.47;10396594;28;96559;-80
2023/04/18 11:56:04;;;;;;;3.72;0.98;;;19.70;73.80;;;18.30;45.62;100043.31;10395716;28;96741;-80
2023/04/18 12:01:23;;;;;;;1.10;0.80;;;19.80;72.60;;;18.65;44.75;100043.56;10413662;28;98781;-82
2023/04/18 12:06:28;;;;;;;1.85;0.57;;;20.30;70.70;;;19.80;43.97;100031.06;10379985;28;98490;-83
2023/04/18 12:11:31;;;;;;;1.25;0.63;;;21.60;71.20;;;20.78;39.72;100028.44;10379996;28;96750;-81
2023/04/18 12:16:34;;;;;;;1.42;0.60;;;22.70;65.20;;;21.05;35.31;100023.34;10411738;28;97557;-81
2023/04/18 12:21:59;;;;;;;1.63;0.75;;;23.10;58.80;;;21.03;36.60;100022.72;10385320;28;96625;-81
2023/04/18 12:27:02;;;;;;;2.25;0.68;;;23.00;58.00;;;20.95;37.58;100025.00;10385267;28;96599;-81
2023/04/18 12:32:05;;;;;;;3.70;0.90;;;22.80;58.00;;;20.36;36.85;100032.38;10349307;28;96639;-81
2023/04/18 12:37:08;;;;;;;1.88;1.05;;;22.30;56.50;;;20.03;37.91;100031.06;10369686;28;96555;-81
2023/04/18 12:42:11;;;;;;;1.88;0.82;;;21.80;57.20;;;19.55;37.64;100026.63;10398764;28;96621;-80
2023/04/18 12:47:14;;;;;;;4.65;0.73;;;21.40;56.50;;;19.88;37.02;100028.84;10400956;28;97977;-80
2023/04/18 12:52:17;;;;;;;3.40;1.33;;;21.80;57.20;;;20.52;38.03;100024.41;10369847;28;96997;-80
2023/04/18 12:57:21;;;;;;;2.90;1.00;;;22.50;56.90;;;20.43;35.65;100024.97;10385618;28;96599;-79
2023/04/18 13:02:25;;;;;;;2.90;0.65;;;22.60;53.90;;;20.00;34.51;100018.88;10385137;28;98437;-80
2023/04/18 13:07:28;;;;;;;2.92;1.00;;;22.30;52.00;;;19.58;35.14;100025.38;10384732;28;96644;-80
2023/04/18 13:12:31;;;;;;;1.55;0.98;;;21.70;52.70;;;19.82;35.84;100019.00;10385299;28;96565;-80
2023/04/18 13:17:35;;;;;;;2.67;1.02;;;22.00;52.80;;;20.46;31.94;100014.56;10368968;28;98283;-80
2023/04/18 13:22:40;;;;;;;2.53;0.63;;;23.10;50.10;;;21.13;32.15;100014.00;10385290;28;96587;-80
2023/04/18 13:27:44;;;;;;;3.63;0.80;;;23.80;49.10;;;21.49;32.78;100012.81;10377997;28;96657;-81
2023/04/18 13:32:47;;;;;;;1.13;0.65;;;24.30;47.50;;;21.80;29.60;100007.91;10397816;28;97053;-82
2023/04/18 13:37:50;;;;;;;1.73;0.70;;;24.70;46.00;;;21.59;27.83;100021.09;10382318;28;96630;-80
2023/04/18 13:42:53;;;;;;;3.40;1.92;;;24.80;43.20;;;22.25;29.84;100009.69;10400847;28;96411;-81
2023/04/18 13:47:56;;;;;;;5.40;1.10;;;25.20;44.60;;;22.34;27.33;100010.91;10398091;28;97341;-82
2023/04/18 13:52:59;;;;;;;2.50;0.80;;;25.70;42.30;;;22.48;28.41;100017.59;10399141;28;96571;-81
2023/04/18 13:58:02;;;;;;;4.30;0.70;;;25.70;42.60;;;22.73;25.41;100022.53;10400838;28;96513;-85
2023/04/18 14:03:05;;;;;;;2.33;0.80;;;26.00;40.40;;;22.60;26.61;100010.16;10397575;27;97558;-81
2023/04/18 14:08:09;;;;;;;3.10;0.75;;;25.60;40.70;;;22.43;24.60;100017.50;10384267;28;96666;-80
2023/04/18 14:13:12;;;;;;;1.70;0.80;;;25.60;39.10;;;22.03;25.10;100021.25;10397985;28;96652;-80
2023/04/18 14:18:20;;;;;;;1.20;0.55;;;25.20;38.80;;;22.42;25.57;100005.88;10385577;27;96638;-80
2023/04/18 14:23:24;;;;;;;1.60;0.80;;;25.20;39.90;;;22.44;24.70;100000.22;10407878;27;96740;-83
2023/04/18 14:28:27;;;;;;;2.30;0.93;;;25.30;38.70;;;21.87;25.23;100008.56;10398760;28;96766;-82
2023/04/18 14:33:34;;;;;;;2.80;1.08;;;24.50;38.90;;;21.88;24.81;100010.19;10379009;27;96655;-85
2023/04/18 14:38:37;;;;;;;1.63;0.80;;;24.60;38.70;;;22.01;26.31;100011.72;10379775;28;96715;-81
2023/04/18 14:43:40;;;;;;;1.85;0.80;;;24.60;39.70;;;21.86;26.01;100010.44;10373123;28;96637;-85
2023/04/18 14:48:45;;;;;;;3.50;0.70;;;24.50;39.70;;;22.13;26.76;100009.78;10395503;28;97373;-81
2023/04/18 14:53:48;;;;;;;1.55;0.95;;;24.70;40.20;;;22.23;26.21;100015.34;10381351;28;96557;-80
2023/04/18 14:58:51;;;;;;;2.67;0.95;;;24.90;39.50;;;22.38;26.91;100010.16;10392998;28;96601;-79
2023/04/18 15:03:54;;;;;;;1.63;1.00;;;25.00;40.30;;;22.34;26.63;100005.50;10375728;27;97567;-80
2023/04/18 15:08:57;;;;;;;3.55;0.90;;;25.00;40.10;;;22.54;26.93;100005.75;10400998;27;97739;-81
2023/04/18 15:14:00;;;;;;;1.80;0.90;;;25.00;40.60;;;22.77;26.85;100006.56;10350882;28;96625;-80
2023/04/18 15:19:03;;;;;;;1.83;1.00;;;25.30;40.60;;;22.45;26.84;99993.72;10399498;28;98434;-80
2023/04/18 15:24:07;;;;;;;2.47;1.10;;;25.10;40.00;;;22.59;26.49;100002.28;10369562;27;96565;-80
2023/04/18 15:29:10;;;;;;;1.20;0.85;;;25.10;40.40;;;22.32;26.52;100005.75;10388554;27;97410;-79
2023/04/18 15:34:14;;;;;;;3.97;1.33;;;24.80;40.00;;;22.30;27.19;99996.22;10379004;27;98128;-79
2023/04/18 15:39:22;;;;;;;3.70;1.23;;;24.70;40.70;;;21.77;26.29;100001.13;10391681;27;96621;-80
2023/04/18 15:44:25;;;;;;;3.20;1.48;;;24.30;39.60;;;21.03;25.78;100011.94;10402781;27;96848;-82
2023/04/18 15:49:28;;;;;;;2.75;1.10;;;23.60;39.00;;;20.61;27.34;100015.94;10395573;28;96669;-81
2023/04/18 15:54:31;;;;;;;3.83;1.05;;;23.00;40.30;;;20.46;27.55;100019.13;10395464;28;96648;-81
2023/04/18 15:59:35;;;;;;;4.90;1.05;;;22.60;40.90;;;19.77;28.65;100013.47;10380044;27;98435;-81
2023/04/18 16:04:38;;;;;;;4.50;2.60;;;21.90;41.30;;;19.24;30.03;100027.72;10414419;27;98682;-82
2023/04/18 16:09:41;;;;;;;3.60;1.70;;;21.20;42.50;;;18.87;30.82;100027.78;10411773;28;96647;-81
2023/04/18 16:14:44;;;;;;;4.20;1.20;;;20.60;43.50;;;18.45;31.26;100030.31;10384020;27;96528;-79
2023/04/18 16:19:47;;;;;;;4.13;1.90;;;20.20;44.20;;;18.15;32.48;100038.25;10408213;27;96701;-79
2023/04/18 16:24:50;;;;;;;7.90;2.70;;;19.80;45.10;;;17.91;33.91;100036.41;10410046;27;97749;-80
2023/04/18 16:29:54;;;;;;;4.03;2.00;;;19.50;45.80;;;17.61;33.88;100039.69;10402495;28;96456;-79
2023/04/18 16:34:56;;;;;;;7.53;3.80;;;19.20;46.50;;;17.54;34.67;100041.63;10379663;28;96528;-81
2023/04/18 16:40:00;;;;;;;3.85;2.22;;;19.10;47.30;;;17.46;34.88;100046.44;10396644;28;96578;-80
2023/04/18 16:45:03;;;;;;;3.08;1.48;;;19.10;47.70;;;17.16;36.00;100054.25;10395203;28;96664;-81
2023/04/18 16:50:08;;;;;;;4.10;1.60;;;18.80;48.60;;;16.91;35.45;100051.44;10377622;28;98677;-80
2023/04/18 16:55:11;;;;;;;4.75;1.95;;;18.50;48.80;;;16.70;36.56;100050.72;10413765;28;96420;-80
2023/04/18 17:00:15;;;;;;;3.60;1.85;;;18.20;49.30;;;16.52;37.42;100056.72;10348672;28;96623;-80
2023/04/18 17:05:18;;;;;;;3.50;1.40;;;18.00;50.20;;;16.40;37.97;100057.56;10370085;28;96565;-80
2023/04/18 17:10:21;;;;;;;5.30;1.60;;;17.80;50.70;;;16.26;38.91;100067.50;10401578;28;97591;-80
2023/04/18 17:15:26;;;;;;;2.20;1.42;;;17.70;51.20;;;16.09;39.66;100068.94;10402148;28;98036;-80
2023/04/18 17:20:29;;;;;;;4.20;1.85;;;17.50;51.70;;;15.91;39.79;100077.59;10384033;28;96581;-80
2023/04/18 17:25:32;;;;;;;5.35;1.92;;;17.40;52.20;;;15.74;40.55;100083.34;10384399;28;98310;-80
2023/04/18 17:30:41;;;;;;;6.70;1.70;;;17.20;52.50;;;15.56;41.28;100079.59;10418646;28;98264;-80
2023/04/18 17:35:44;;;;;;;3.53;1.83;;;17.10;53.20;;;15.34;41.98;100081.56;10386037;28;98197;-80
2023/04/18 17:40:47;;;;;;;6.63;1.90;;;16.80;53.50;;;15.16;42.34;100096.34;10401292;28;96457;-80
2023/04/18 17:45:50;;;;;;;4.70;2.08;;;16.60;54.10;;;14.99;42.72;100100.38;10415651;28;96581;-80
2023/04/18 17:50:53;;;;;;;6.82;2.40;;;16.50;54.80;;;14.81;43.41;100103.59;10399209;28;96559;-80
2023/04/18 17:56:00;;;;;;;6.97;3.00;;;16.30;54.80;;;14.67;44.63;100109.91;10416452;28;96561;-80
2023/04/18 18:01:03;;;;;;;8.35;3.03;;;16.20;55.40;;;14.48;45.28;100108.75;10399398;28;96764;-80
2023/04/18 18:06:06;;;;;;;11.20;3.53;;;16.00;56.00;;;14.30;46.61;100114.56;10397448;28;96692;-79
2023/04/18 18:11:09;;;;;;;13.13;5.85;;;15.90;56.90;;;14.14;46.86;100117.50;10408389;27;96786;-79
2023/04/18 18:16:12;;;;;;;8.23;4.88;;;15.70;57.40;;;13.99;48.04;100128.28;10413300;27;96580;-81
2023/04/18 18:21:16;;;;;;;8.20;5.00;;;15.50;58.00;;;13.85;48.28;100122.00;10394189;27;96713;-80
2023/04/18 18:26:20;;;;;;;11.03;4.60;;;15.30;58.30;;;13.74;48.49;100124.34;10397488;27;97606;-80
2023/04/18 18:31:23;;;;;;;14.10;6.53;;;15.20;58.70;;;13.63;48.53;100131.81;10394286;28;98650;-82
2023/04/18 18:36:27;;;;;;;9.93;4.87;;;15.10;59.30;;;13.55;49.08;100134.59;10367920;27;96608;-81
2023/04/18 18:41:30;;;;;;;10.63;4.77;;;15.00;59.50;;;13.49;49.36;100135.34;10374100;27;96683;-81
2023/04/18 18:46:34;;;;;;;10.07;3.97;;;15.00;59.60;;;13.42;49.08;100129.09;10379348;27;96679;-80
2023/04/18 18:51:37;;;;;;;9.90;5.10;;;14.90;60.00;;;13.36;49.44;100141.38;10412040;27;96861;-80
2023/04/18 18:56:41;;;;;;;8.50;4.23;;;14.80;60.30;;;13.29;49.49;100147.66;10398378;28;96480;-80
2023/04/18 19:01:44;;;;;;;7.37;3.90;;;14.80;60.60;;;13.23;49.46;100161.72;10395155;27;97666;-80
2023/04/18 19:06:47;;;;;;;9.83;4.30;;;14.70;60.90;;;13.14;50.06;100169.00;10389923;27;96648;-80
2023/04/18 19:11:50;;;;;;;5.93;3.10;;;14.60;60.90;;;13.12;49.40;100177.16;10430700;27;97067;-80
2023/04/18 19:16:54;;;;;;;5.13;2.03;;;14.60;61.20;;;13.21;48.29;100180.59;10382166;27;96714;-79
2023/04/18 19:21:59;;;;;;;4.80;2.27;;;14.60;61.10;;;13.28;47.88;100189.50;10382861;27;97890;-80
2023/04/18 19:27:03;;;;;;;4.17;2.67;;;14.70;61.10;;;13.38;47.88;100189.25;10389770;27;98691;-79
2023/04/18 19:32:06;;;;;;;7.30;3.30;;;14.70;61.20;;;13.43;47.92;100192.16;10366830;27;98044;-80
2023/04/18 19:37:09;;;;;;;5.27;2.83;;;14.80;61.20;;;13.48;47.36;100195.09;10366548;27;98241;-80
2023/04/18 19:42:12;;;;;;;6.13;2.60;;;14.90;60.90;;;13.54;46.82;100196.19;10379907;27;97770;-80
2023/04/18 19:47:15;;;;;;;4.70;3.00;;;14.90;60.60;;;13.55;46.57;100203.19;10389245;28;96615;-80
2023/04/18 19:52:18;;;;;;;6.87;2.93;;;14.90;60.50;;;13.56;47.12;100199.53;10390416;27;98116;-80
2023/04/18 19:57:21;;;;;;;7.90;2.60;;;14.90;60.70;;;13.56;47.16;100210.19;10397602;27;96637;-79
2023/04/18 20:02:24;;;;;;;4.60;2.80;;;14.90;60.70;;;13.53;47.78;100206.03;10393201;27;99884;-80
2023/04/18 20:07:29;;;;;;;4.90;2.93;;;14.90;61.00;;;13.46;46.60;100197.13;10413102;27;98699;-80
2023/04/18 20:12:32;;;;;;;4.90;2.20;;;14.90;60.70;;;13.45;47.32;100200.00;10369526;28;96640;-80
2023/04/18 20:17:36;;;;;;;3.33;2.08;;;14.90;60.70;;;13.44;47.22;100203.69;10383689;27;97594;-80
2023/04/18 20:22:40;;;;;;;4.50;2.23;;;14.80;60.50;;;13.41;47.72;100206.72;10385724;27;97309;-79
2023/04/18 20:27:43;;;;;;;5.77;2.90;;;14.80;60.70;;;13.32;48.02;100214.00;10410326;28;96692;-79
2023/04/18 20:32:46;;;;;;;4.63;2.63;;;14.70;61.10;;;13.21;49.12;100206.47;10391140;27;96792;-79
2023/04/18 20:37:49;;;;;;;4.93;2.67;;;14.70;61.50;;;13.08;49.93;100218.56;10395478;27;96775;-79
2023/04/18 20:42:56;;;;;;;5.60;2.90;;;14.60;62.20;;;12.96;50.78;100220.03;10388103;28;96535;-79
2023/04/18 20:48:02;;;;;;;5.20;2.43;;;14.50;62.40;;;12.89;50.29;100223.59;10383322;27;97460;-78
2023/04/18 20:53:05;;;;;;;3.97;2.10;;;14.40;62.80;;;12.85;49.96;100209.81;10395945;27;96648;-79
2023/04/18 20:58:08;;;;;;;5.53;1.93;;;14.30;62.60;;;12.86;48.99;100214.13;10400958;28;96567;-79